• Join FlightAware (Why Join?)
  • Login
  • US Flag GB Flag 
15:54 EST


 

Airport Tracker/Info


-or-


 

Live Flight TrackerFlight Track Log ✈ N496DA ✈ 15-Feb-2014 ✈ KGNV - KSFB

Flight Track Log - Related Links

Times and Time Zones

All times are in EST time to prevent confusion due to time zone crossing. See the N496DA flight status page for this flight to view local times or setup timezone preferences in your user account.

Time Position Orientation Groundspeed Altitude Reporting Facility
EST Latitude Longitude Course Direction KTS MPH feet Rate Location/Type
16:59 29.6744 -82.3069 234° Southwest 101 116 900  Level Jacksonville Center
17:00 29.6431 -82.2881 152° Southeast 125 144 1,800 780 Climbing Jacksonville Center
17:01 29.6158 -82.2714 152° Southeast 117 135 2,500 720 Climbing Jacksonville Center
17:02 29.5864 -82.2500 148° Southeast 115 132 3,300 600 Climbing Jacksonville Center
17:03 29.5569 -82.2336 154° Southeast 116 133 3,800 540 Climbing Jacksonville Center
17:04 29.5256 -82.2125 150° Southeast 125 144 4,500 540 Climbing Jacksonville Center
17:05 29.4942 -82.1911 149° Southeast 129 148 5,000 240 Climbing Jacksonville Center
17:06 29.4586 -82.1697 152° Southeast 152 175 5,100  Climbing Jacksonville Center
17:07 29.4189 -82.1439 150° Southeast 153 176 5,100  Level Jacksonville Center
17:08 29.3831 -82.1203 150° Southeast 148 170 5,100  Level Jacksonville Center
17:09 29.3475 -82.0969 150° Southeast 147 169 5,100 -60 Level Jacksonville Center
17:10 29.3119 -82.0708 147° Southeast 154 177 5,000 -60 Descending Jacksonville Center
17:11 29.2761 -82.0475 150° Southeast 150 173 5,000  Level Jacksonville Center
17:12 29.2406 -82.0286 155° Southeast 151 174 5,000  Level Jacksonville Center
17:13 29.2008 -82.0053 153° Southeast 149 171 5,000  Level Jacksonville Center
17:14 29.1631 -81.9819 152° Southeast 145 167 5,100  Climbing Jacksonville Center
17:15 29.1294 -81.9561 146° Southeast 145 167 5,100 -60 Level Jacksonville Center
17:17 29.0667 -81.9167 151° Southeast 148 170 5,000 -60 Descending Orlando TRACON
17:18 29.0333 -81.8833 139° Southeast 148 170 5,000  Level Orlando TRACON
17:19 29.0000 -81.8667 156° South 145 167 5,000  Level Orlando TRACON
17:20 28.9667 -81.8500 156° South 144 166 5,100  Climbing Orlando TRACON
17:21 28.9333 -81.8167 139° Southeast 143 165 5,000 -60 Descending Orlando TRACON
17:22 28.9000 -81.8000 156° South 145 167 5,000  Level Orlando TRACON
17:23 28.8667 -81.7833 156° South 144 166 5,100  Climbing Orlando TRACON
17:24 28.8500 -81.7333 111° Southeast 136 157 5,000 -60 Descending Orlando TRACON
17:25 28.8500 -81.6833 90° East 138 159 5,000  Level Orlando TRACON
17:26 28.8500 -81.6500 90° East 139 160 5,000  Level Orlando TRACON
17:27 28.8500 -81.6000 90° East 139 160 5,100  Climbing Orlando TRACON
17:28 28.8500 -81.5667 90° East 136 157 5,000  Descending Orlando TRACON
17:29 28.8500 -81.5167 90° East 134 154 5,100  Climbing Orlando TRACON
17:30 28.8500 -81.4667 90° East 136 157 5,000 -60 Descending Orlando TRACON
17:31 28.8500 -81.4333 90° East 131 151 5,000 -60 Level Orlando TRACON
17:32 28.8500 -81.3833 90° East 135 155 4,900 -240 Descending Orlando TRACON
17:33 28.8500 -81.3500 90° East 135 155 4,600 -300 Descending Orlando TRACON
17:34 28.8500 -81.3000 90° East 136 157 4,300 -480 Descending Orlando TRACON
17:35 28.8667 -81.2667 60° Northeast 144 166 3,700 -600 Descending Orlando TRACON
17:36 28.8667 -81.2167 90° East 142 163 3,200 -300 Descending Orlando TRACON
17:37 28.8833 -81.1667 69° East 140 161 3,100 -300 Descending Orlando TRACON
17:38 28.8833 -81.1333 90° East 142 163 2,600 -480 Descending Orlando TRACON
17:39 28.8833 -81.0833 90° East 137 158 2,200 -540 Descending Orlando TRACON
17:40 28.8500 -81.0667 156° South 138 159 1,600 -300 Descending Orlando TRACON
17:41 28.8167 -81.0500 156° South 122 140 1,600  Level Orlando TRACON
17:42 28.7833 -81.0500 180° South 121 139 1,600  Level Orlando TRACON
17:43 28.7833 -81.0833 270° West 118 136 1,600  Level Orlando TRACON
17:44 28.7833 -81.1333 270° West 109 125 1,700 -240 Climbing Orlando TRACON
17:45 28.7833 -81.1500 270° West 76 87 1,200 -480 Descending Orlando TRACON
17:46 28.7833 -81.1833 270° West 84 97 800 -420 Descending Orlando TRACON